Time;durP1;ratioP1;P1;durP2;ratioP2;P2;SDS_P1;SDS_P2;PMS_P1;PMS_P2;Temp;Humidity;BMP_temperature;BMP_pressure;BME280_temperature;BME280_humidity;BME280_pressure;Samples;Min_cycle;Max_cycle;Signal;HPM_P1;HPM_P2
2022/09/20 00:01:44;;;;;;;1.33;0.50;;;9.10;99.90;;;;;;6219804;23;20009;-82
2022/09/20 00:04:10;;;;;;;0.85;0.50;;;9.10;99.90;;;;;;6220893;23;20012;-82
2022/09/20 00:06:35;;;;;;;2.67;0.60;;;9.20;99.90;;;;;;6220590;23;20027;-82
2022/09/20 00:09:02;;;;;;;1.52;0.50;;;9.20;99.90;;;;;;6220486;23;20028;-83
2022/09/20 00:11:30;;;;;;;2.92;0.60;;;9.30;99.90;;;;;;6220514;23;20440;-82
2022/09/20 00:13:59;;;;;;;2.22;0.70;;;9.30;99.90;;;;;;6228445;23;19996;-79
2022/09/20 00:16:30;;;;;;;1.15;0.60;;;9.30;99.90;;;;;;6240068;22;19999;-76
2022/09/20 00:18:58;;;;;;;1.40;0.40;;;9.30;99.90;;;;;;6237562;22;20000;-82
2022/09/20 00:21:26;;;;;;;0.73;0.57;;;9.30;99.90;;;;;;6207167;23;20099;-82
2022/09/20 00:23:53;;;;;;;3.50;0.60;;;9.30;99.90;;;;;;6223656;23;20076;-81
2022/09/20 00:26:19;;;;;;;0.68;0.50;;;9.30;99.90;;;;;;6238637;23;20058;-78
2022/09/20 00:28:45;;;;;;;1.40;0.50;;;9.40;99.90;;;;;;6213706;22;20015;-78
2022/09/20 00:31:12;;;;;;;2.10;0.75;;;9.40;99.90;;;;;;6240833;22;20020;-78
2022/09/20 00:36:22;;;;;;;0.98;0.50;;;9.40;99.90;;;;;;6239706;22;20075;-78
2022/09/20 00:38:48;;;;;;;1.00;0.70;;;9.40;99.90;;;;;;6205393;23;20013;-83
2022/09/20 00:41:15;;;;;;;1.75;0.82;;;9.40;99.90;;;;;;6192675;23;20036;-83
2022/09/20 00:43:43;;;;;;;1.20;0.68;;;9.40;99.90;;;;;;6218895;23;20011;-83
2022/09/20 00:46:36;;;;;;;2.35;0.73;;;9.40;99.90;;;;;;6219537;23;20007;-83
2022/09/20 00:49:28;;;;;;;1.83;0.65;;;9.50;99.90;;;;;;6214448;23;20083;-83
2022/09/20 00:51:59;;;;;;;3.58;0.70;;;9.50;99.90;;;;;;6221540;23;20064;-82
2022/09/20 00:54:29;;;;;;;0.47;0.45;;;9.40;99.90;;;;;;6222579;23;20020;-83
2022/09/20 00:56:55;;;;;;;0.70;0.50;;;9.50;99.90;;;;;;6221074;23;20001;-81
2022/09/20 00:59:29;;;;;;;1.83;0.85;;;9.50;99.90;;;;;;6220394;23;20111;-81
2022/09/20 01:02:07;;;;;;;1.17;0.70;;;9.50;99.90;;;;;;6220126;23;20000;-81
2022/09/20 01:04:34;;;;;;;2.08;0.60;;;9.50;99.90;;;;;;6219987;23;20008;-82
2022/09/20 01:07:03;;;;;;;0.77;0.50;;;9.50;99.90;;;;;;6221263;23;20024;-81
2022/09/20 01:09:28;;;;;;;0.60;0.50;;;9.50;99.90;;;;;;6208039;23;20107;-79
2022/09/20 01:11:55;;;;;;;1.40;0.68;;;9.50;99.90;;;;;;6206646;23;20008;-81
2022/09/20 01:14:24;;;;;;;0.95;0.77;;;9.50;99.90;;;;;;6221319;23;20072;-82
2022/09/20 01:16:56;;;;;;;1.65;1.30;;;9.60;99.90;;;;;;6217025;23;19997;-82
2022/09/20 01:19:30;;;;;;;2.45;0.65;;;9.60;99.90;;;;;;6195718;23;20085;-82
2022/09/20 01:21:56;;;;;;;6.72;1.17;;;9.60;99.90;;;;;;6197743;23;20005;-82
2022/09/20 01:24:36;;;;;;;0.90;0.70;;;9.60;99.90;;;;;;6196413;23;20022;-82
2022/09/20 01:27:19;;;;;;;0.57;0.40;;;9.60;99.90;;;;;;6217161;23;20008;-82
2022/09/20 01:30:04;;;;;;;1.00;0.68;;;9.50;99.90;;;;;;6218339;23;20016;-82
2022/09/20 01:33:08;;;;;;;2.03;0.60;;;9.50;99.90;;;;;;6218994;23;20005;-82
2022/09/20 01:35:35;;;;;;;1.17;0.50;;;9.50;99.90;;;;;;6219486;23;20100;-83
2022/09/20 01:38:37;;;;;;;3.45;0.90;;;9.50;99.90;;;;;;6192617;23;20004;-81
2022/09/20 01:41:16;;;;;;;2.45;1.05;;;9.50;99.90;;;;;;6219793;23;20004;-82
2022/09/20 01:43:52;;;;;;;2.90;0.70;;;9.50;99.90;;;;;;6193907;23;20012;-83
2022/09/20 01:46:34;;;;;;;2.05;0.63;;;9.50;99.90;;;;;;6220310;23;20102;-81
2022/09/20 01:49:16;;;;;;;1.75;0.82;;;9.50;99.90;;;;;;6220904;23;20150;-82
2022/09/20 01:52:14;;;;;;;1.05;0.73;;;9.40;99.90;;;;;;6230587;23;20015;-82
2022/09/20 01:54:56;;;;;;;1.35;0.75;;;9.40;99.90;;;;;;6179408;23;19993;-79
2022/09/20 01:57:47;;;;;;;3.53;0.90;;;9.30;99.90;;;;;;6225047;23;20035;-83
2022/09/20 02:00:19;;;;;;;1.40;0.90;;;9.30;99.90;;;;;;6221810;23;20001;-82
2022/09/20 02:03:17;;;;;;;1.10;0.80;;;9.30;99.90;;;;;;6219646;23;20380;-82
2022/09/20 02:06:22;;;;;;;2.72;1.00;;;9.30;99.90;;;;;;6220235;23;20017;-82
2022/09/20 02:09:12;;;;;;;2.42;1.38;;;9.30;99.90;;;;;;6192647;23;20008;-80
2022/09/20 02:11:48;;;;;;;2.03;0.60;;;9.30;99.90;;;;;;6191751;23;20016;-82
2022/09/20 02:14:32;;;;;;;2.25;0.95;;;9.30;99.90;;;;;;6218968;23;20000;-82
2022/09/20 02:17:17;;;;;;;1.40;0.70;;;9.30;99.90;;;;;;6216874;23;20027;-82
2022/09/20 02:20:14;;;;;;;0.57;0.57;;;9.30;99.90;;;;;;6216998;23;20059;-81
2022/09/20 02:23:09;;;;;;;1.35;0.68;;;9.30;99.90;;;;;;6215941;23;20001;-80
2022/09/20 02:25:56;;;;;;;1.65;1.05;;;9.30;99.90;;;;;;6215008;23;20058;-81
2022/09/20 02:28:43;;;;;;;1.58;0.70;;;9.30;99.90;;;;;;6214486;23;20394;-81
2022/09/20 02:31:27;;;;;;;0.93;0.55;;;9.20;99.90;;;;;;6219347;23;20063;-83
2022/09/20 02:33:58;;;;;;;0.98;0.70;;;9.20;99.90;;;;;;6219377;23;20031;-82
2022/09/20 02:36:51;;;;;;;0.98;0.65;;;9.20;99.90;;;;;;6191910;23;20012;-80
2022/09/20 02:39:24;;;;;;;3.63;0.63;;;9.20;99.90;;;;;;6220095;23;20001;-82
2022/09/20 02:42:13;;;;;;;2.75;1.45;;;9.20;99.90;;;;;;6193082;23;20510;-80
2022/09/20 02:44:55;;;;;;;0.93;0.80;;;9.20;99.90;;;;;;6203900;23;20119;-81
2022/09/20 02:47:52;;;;;;;6.97;0.90;;;9.20;99.90;;;;;;6220091;23;20040;-81
2022/09/20 02:50:37;;;;;;;2.00;0.75;;;9.20;99.90;;;;;;6219873;23;20235;-82
2022/09/20 02:53:06;;;;;;;2.25;0.70;;;9.20;99.90;;;;;;6220837;23;20522;-81
2022/09/20 02:55:46;;;;;;;1.95;0.50;;;9.20;99.90;;;;;;6193703;23;20001;-82
2022/09/20 02:58:40;;;;;;;1.17;0.73;;;9.20;99.90;;;;;;6193714;23;20368;-82
2022/09/20 03:01:23;;;;;;;2.85;1.48;;;9.20;99.90;;;;;;6220337;23;20027;-82
2022/09/20 03:04:30;;;;;;;2.35;0.90;;;9.20;99.90;;;;;;6193258;23;20011;-81
2022/09/20 03:07:14;;;;;;;0.50;0.50;;;9.20;99.90;;;;;;6220110;23;20042;-81
2022/09/20 03:09:50;;;;;;;1.33;0.88;;;9.20;99.90;;;;;;6220050;23;20020;-82
2022/09/20 03:13:03;;;;;;;1.25;0.80;;;9.20;99.90;;;;;;6219931;23;20000;-81
2022/09/20 03:15:52;;;;;;;0.73;0.70;;;9.20;99.90;;;;;;6224172;23;20005;-79
2022/09/20 03:18:44;;;;;;;2.08;0.63;;;9.20;99.90;;;;;;6225021;23;20000;-81
2022/09/20 03:21:33;;;;;;;3.35;0.80;;;9.10;99.90;;;;;;6221855;23;20009;-81
2022/09/20 03:24:36;;;;;;;0.80;0.60;;;9.20;99.90;;;;;;6183251;23;19996;-81
2022/09/20 03:27:24;;;;;;;3.72;1.05;;;9.20;99.90;;;;;;6222731;23;20077;-80
2022/09/20 03:30:05;;;;;;;1.60;1.00;;;9.20;99.90;;;;;;6224010;23;20032;-79
2022/09/20 03:32:56;;;;;;;1.90;1.10;;;9.20;99.90;;;;;;6221721;23;20009;-82
2022/09/20 03:36:13;;;;;;;1.70;0.93;;;9.20;99.90;;;;;;6197119;23;20001;-81
2022/09/20 03:38:54;;;;;;;6.40;1.88;;;9.10;99.90;;;;;;6203786;23;20008;-81
2022/09/20 03:41:41;;;;;;;2.67;0.88;;;9.10;99.90;;;;;;6222610;23;20000;-82
2022/09/20 03:44:07;;;;;;;2.13;0.90;;;9.10;99.90;;;;;;6222296;23;20001;-82
2022/09/20 03:46:44;;;;;;;3.63;1.10;;;9.10;99.90;;;;;;6206654;23;20005;-78
2022/09/20 03:49:40;;;;;;;2.10;0.93;;;9.10;99.90;;;;;;6212963;23;20059;-78
2022/09/20 03:52:30;;;;;;;1.33;1.17;;;9.10;99.90;;;;;;6238950;23;20036;-78
2022/09/20 03:55:25;;;;;;;6.03;1.30;;;9.10;99.90;;;;;;6220265;23;19997;-81
2022/09/20 03:58:26;;;;;;;1.38;0.68;;;9.20;99.90;;;;;;6184445;23;20001;-82
2022/09/20 04:01:26;;;;;;;1.15;1.00;;;9.10;99.90;;;;;;6190856;23;20052;-80
2022/09/20 04:04:18;;;;;;;2.03;0.70;;;9.20;99.90;;;;;;6218339;23;19996;-81
2022/09/20 04:06:59;;;;;;;1.38;1.00;;;9.20;99.90;;;;;;6218916;23;20007;-81
2022/09/20 04:09:50;;;;;;;6.45;1.38;;;9.10;99.90;;;;;;6218869;23;20004;-81
2022/09/20 04:12:26;;;;;;;4.55;1.02;;;9.20;99.90;;;;;;6192941;23;20144;-83
2022/09/20 04:15:14;;;;;;;5.10;1.20;;;9.20;99.90;;;;;;6236974;22;20042;-77
2022/09/20 04:18:01;;;;;;;5.22;2.15;;;9.20;99.90;;;;;;6214551;22;20023;-77
2022/09/20 04:20:35;;;;;;;4.03;1.08;;;9.10;99.90;;;;;;6241153;22;19992;-77
2022/09/20 04:23:25;;;;;;;3.88;1.85;;;9.20;99.90;;;;;;6240959;22;19989;-78
2022/09/20 04:25:51;;;;;;;4.65;1.25;;;9.20;99.90;;;;;;6240233;22;20028;-80
2022/09/20 04:28:21;;;;;;;1.48;1.00;;;9.20;99.90;;;;;;6212131;23;20056;-82
2022/09/20 04:30:50;;;;;;;3.80;1.00;;;9.20;99.90;;;;;;6226317;23;20020;-83
2022/09/20 04:33:33;;;;;;;1.85;1.10;;;9.10;99.90;;;;;;6200867;23;20008;-83
2022/09/20 04:36:29;;;;;;;6.93;1.30;;;9.10;99.90;;;;;;6228199;23;20068;-80
2022/09/20 04:39:00;;;;;;;1.52;0.80;;;9.10;99.90;;;;;;6201372;23;20063;-81
2022/09/20 04:42:06;;;;;;;1.23;0.90;;;9.00;99.90;;;;;;6213417;23;20068;-80
2022/09/20 04:44:53;;;;;;;1.73;1.00;;;9.00;99.90;;;;;;6214208;22;19989;-78
2022/09/20 04:47:54;;;;;;;2.38;1.30;;;9.10;99.90;;;;;;6224059;22;20013;-81
2022/09/20 04:50:41;;;;;;;3.80;1.17;;;9.00;99.90;;;;;;6220166;23;20008;-81
2022/09/20 04:53:29;;;;;;;5.13;1.20;;;9.10;99.90;;;;;;6216965;23;20009;-81
2022/09/20 04:56:00;;;;;;;2.50;1.10;;;9.10;99.90;;;;;;6194503;23;20056;-81
2022/09/20 04:58:35;;;;;;;3.55;1.15;;;9.10;99.90;;;;;;6195938;23;20085;-80
2022/09/20 05:01:16;;;;;;;4.78;1.58;;;9.00;99.90;;;;;;6172823;23;20009;-80
2022/09/20 05:04:05;;;;;;;3.03;1.27;;;9.00;99.90;;;;;;6168498;23;20005;-79
2022/09/20 05:06:52;;;;;;;2.67;1.58;;;9.10;99.90;;;;;;6168333;23;20006;-80
2022/09/20 05:09:45;;;;;;;7.40;1.83;;;9.10;99.90;;;;;;6169572;23;20084;-80
2022/09/20 05:12:46;;;;;;;3.80;1.38;;;9.10;99.90;;;;;;6167576;23;20002;-80
2022/09/20 05:15:23;;;;;;;5.03;1.40;;;9.10;99.90;;;;;;6169210;23;19997;-80
2022/09/20 05:18:16;;;;;;;5.78;1.48;;;9.10;99.90;;;;;;6172094;23;20085;-80
2022/09/20 05:20:51;;;;;;;4.63;1.30;;;9.00;99.90;;;;;;6174076;23;20010;-80
2022/09/20 05:23:33;;;;;;;2.28;1.50;;;9.10;99.90;;;;;;6174115;23;19994;-80
2022/09/20 05:26:18;;;;;;;2.80;1.45;;;9.10;99.90;;;;;;6175903;23;20068;-80
2022/09/20 05:29:21;;;;;;;5.15;1.35;;;9.10;99.90;;;;;;6197500;23;20002;-80
2022/09/20 05:32:38;;;;;;;3.88;1.17;;;9.10;99.90;;;;;;6172664;23;20025;-80
2022/09/20 05:35:17;;;;;;;3.85;1.75;;;9.20;99.90;;;;;;6124857;23;20001;-80
2022/09/20 05:38:07;;;;;;;5.10;1.40;;;9.20;99.90;;;;;;6173366;23;19998;-80
2022/09/20 05:40:47;;;;;;;3.88;1.70;;;9.30;99.90;;;;;;6170300;23;20009;-80
2022/09/20 05:43:25;;;;;;;5.65;2.30;;;9.30;99.90;;;;;;6165860;23;20008;-81
2022/09/20 05:45:51;;;;;;;6.05;1.52;;;9.30;99.90;;;;;;6181305;23;19997;-80
2022/09/20 05:48:35;;;;;;;5.28;1.75;;;9.30;99.90;;;;;;6184274;23;20013;-81
2022/09/20 05:51:11;;;;;;;3.08;1.48;;;9.40;99.90;;;;;;6192934;23;20400;-80
2022/09/20 05:53:55;;;;;;;4.35;1.77;;;9.40;99.90;;;;;;6193624;23;20001;-81
2022/09/20 05:56:42;;;;;;;2.88;1.70;;;9.50;99.90;;;;;;6167509;23;20013;-80
2022/09/20 05:59:42;;;;;;;3.15;1.27;;;9.50;99.90;;;;;;6192153;23;20031;-81
2022/09/20 06:02:24;;;;;;;6.35;1.50;;;9.60;99.90;;;;;;6191848;23;20001;-80
2022/09/20 06:05:28;;;;;;;6.97;1.80;;;9.70;99.90;;;;;;6192912;23;19997;-81
2022/09/20 06:08:32;;;;;;;4.13;1.70;;;9.70;99.90;;;;;;6163327;23;20037;-79
2022/09/20 06:11:06;;;;;;;5.22;2.53;;;9.80;99.90;;;;;;6198095;23;20005;-80
2022/09/20 06:14:08;;;;;;;4.55;1.45;;;9.80;99.90;;;;;;6198937;23;20001;-80
2022/09/20 06:16:45;;;;;;;4.30;1.40;;;9.80;99.90;;;;;;6205223;23;19985;-79
2022/09/20 06:19:31;;;;;;;3.13;1.50;;;9.90;99.90;;;;;;6186377;23;20056;-80
2022/09/20 06:22:07;;;;;;;3.80;1.60;;;10.00;99.90;;;;;;6212314;23;20002;-78
2022/09/20 06:24:38;;;;;;;3.22;1.80;;;10.10;99.90;;;;;;6208809;23;20001;-80
2022/09/20 06:27:10;;;;;;;7.67;1.80;;;10.10;99.90;;;;;;6194576;23;20440;-80
2022/09/20 06:29:42;;;;;;;5.55;1.92;;;10.20;99.90;;;;;;6204528;23;19997;-79
2022/09/20 06:32:08;;;;;;;4.47;2.33;;;10.20;99.90;;;;;;6169743;23;20088;-80
2022/09/20 06:34:34;;;;;;;4.97;1.58;;;10.20;99.90;;;;;;6171780;23;20013;-80
2022/09/20 06:43:07;;;;;;;6.32;1.83;;;10.10;99.90;;;;;;6195097;23;20446;-81
2022/09/20 06:45:33;;;;;;;4.07;1.80;;;10.10;99.90;;;;;;6195608;23;20064;-80
2022/09/20 06:48:01;;;;;;;3.38;1.55;;;10.00;99.90;;;;;;6167510;23;20008;-81
2022/09/20 06:50:26;;;;;;;8.48;1.67;;;10.00;99.90;;;;;;6196241;23;20068;-83
2022/09/20 06:52:54;;;;;;;3.95;1.50;;;10.00;99.90;;;;;;6196409;23;20001;-81
2022/09/20 06:55:27;;;;;;;6.15;1.48;;;10.00;99.90;;;;;;6195727;23;20063;-81
2022/09/20 06:57:54;;;;;;;6.65;1.73;;;10.00;99.90;;;;;;6199519;23;20020;-81
2022/09/20 07:00:20;;;;;;;5.18;1.75;;;10.10;99.90;;;;;;6194581;23;20029;-81
2022/09/20 07:02:45;;;;;;;7.95;2.00;;;10.10;99.90;;;;;;6193271;23;20004;-82
2022/09/20 07:05:16;;;;;;;6.38;1.92;;;10.10;99.90;;;;;;6195148;23;20004;-82
2022/09/20 07:07:42;;;;;;;7.20;1.90;;;10.10;99.90;;;;;;6168634;23;20008;-82
2022/09/20 07:10:10;;;;;;;4.70;1.83;;;10.20;99.90;;;;;;6196850;23;20005;-82
2022/09/20 07:12:36;;;;;;;4.50;1.92;;;10.20;99.90;;;;;;6172362;23;20029;-84
2022/09/20 07:15:02;;;;;;;5.72;2.17;;;10.20;99.90;;;;;;6171082;23;20004;-83
2022/09/20 07:17:28;;;;;;;7.05;1.85;;;10.30;99.90;;;;;;6195745;23;20353;-84
2022/09/20 07:19:55;;;;;;;6.70;1.90;;;10.40;99.90;;;;;;6195920;23;20008;-83
2022/09/20 07:22:21;;;;;;;4.57;1.83;;;10.30;99.90;;;;;;6196432;23;20012;-80
2022/09/20 07:24:47;;;;;;;7.70;1.65;;;10.30;99.90;;;;;;6195623;23;20092;-82
2022/09/20 07:27:13;;;;;;;7.15;1.58;;;10.30;99.90;;;;;;6195801;23;20032;-81
2022/09/20 07:29:39;;;;;;;6.60;2.65;;;10.30;99.90;;;;;;6196840;23;20008;-81
2022/09/20 07:32:05;;;;;;;2.95;1.50;;;10.30;99.90;;;;;;6168955;23;20009;-81
2022/09/20 07:34:31;;;;;;;4.75;2.40;;;10.40;99.90;;;;;;6196539;23;20004;-80
2022/09/20 07:36:58;;;;;;;3.22;1.80;;;10.40;99.90;;;;;;6195128;23;20021;-80
2022/09/20 07:39:25;;;;;;;5.70;2.08;;;10.50;99.80;;;;;;6195990;23;20055;-81
2022/09/20 07:41:51;;;;;;;6.72;2.25;;;10.60;99.60;;;;;;6196735;23;20069;-82
2022/09/20 07:44:23;;;;;;;7.60;1.90;;;10.50;99.20;;;;;;6153709;23;20009;-82
2022/09/20 07:46:54;;;;;;;3.25;1.75;;;10.40;99.60;;;;;;6202842;23;20005;-82
2022/09/20 07:49:20;;;;;;;6.20;1.85;;;10.30;99.90;;;;;;6196123;23;20482;-80
2022/09/20 07:51:46;;;;;;;7.22;3.15;;;10.30;99.90;;;;;;6169952;23;20019;-83
2022/09/20 07:54:12;;;;;;;8.20;2.90;;;10.20;99.90;;;;;;6198857;23;20028;-82
2022/09/20 07:56:39;;;;;;;7.22;2.25;;;10.10;99.90;;;;;;6204360;23;20008;-82
2022/09/20 07:59:05;;;;;;;7.50;2.28;;;10.00;99.90;;;;;;6206592;23;20407;-82
2022/09/20 08:01:30;;;;;;;7.07;2.30;;;10.00;99.90;;;;;;6170243;23;20097;-81
2022/09/20 08:03:56;;;;;;;5.40;2.40;;;10.00;99.90;;;;;;6195188;23;20008;-82
2022/09/20 08:06:22;;;;;;;8.13;2.95;;;10.10;99.90;;;;;;6195461;23;20005;-81
2022/09/20 08:08:48;;;;;;;6.55;2.30;;;10.20;99.90;;;;;;6172166;23;20008;-83
2022/09/20 08:11:24;;;;;;;4.10;2.08;;;10.10;99.90;;;;;;6195563;23;20124;-81
2022/09/20 08:13:52;;;;;;;13.77;4.95;;;10.00;99.90;;;;;;6196889;23;20012;-82
2022/09/20 08:16:18;;;;;;;7.88;2.95;;;10.10;99.90;;;;;;6169122;23;20031;-80
2022/09/20 08:18:49;;;;;;;5.40;2.67;;;10.30;99.90;;;;;;6196158;23;20387;-82
2022/09/20 08:21:16;;;;;;;6.72;1.92;;;10.50;99.90;;;;;;6195159;23;20016;-82
2022/09/20 08:23:43;;;;;;;11.23;3.03;;;10.70;99.90;;;;;;6196831;23;20004;-81
2022/09/20 08:26:11;;;;;;;7.57;2.67;;;10.90;99.90;;;;;;6210146;23;19997;-81
2022/09/20 08:28:38;;;;;;;9.48;2.88;;;11.00;99.90;;;;;;6210124;23;20016;-81
2022/09/20 08:31:12;;;;;;;4.80;2.10;;;11.20;99.90;;;;;;6183827;23;20017;-80
2022/09/20 08:33:39;;;;;;;7.57;2.42;;;11.30;99.90;;;;;;6210144;23;19993;-81
2022/09/20 08:36:06;;;;;;;9.73;2.33;;;11.50;99.90;;;;;;6177543;23;20005;-81
2022/09/20 08:38:33;;;;;;;8.43;3.03;;;11.60;99.90;;;;;;6195802;23;20111;-82
2022/09/20 08:41:25;;;;;;;6.15;2.78;;;11.70;99.90;;;;;;6193066;23;20009;-81
2022/09/20 08:44:11;;;;;;;12.55;2.78;;;11.80;99.90;;;;;;6195613;23;19996;-81
2022/09/20 08:46:41;;;;;;;9.73;3.15;;;12.00;99.90;;;;;;6168532;23;20033;-81
2022/09/20 08:49:10;;;;;;;7.55;2.75;;;12.00;99.90;;;;;;6168922;23;20044;-82
2022/09/20 08:51:38;;;;;;;6.75;2.90;;;11.90;99.90;;;;;;6174150;23;20087;-82
2022/09/20 08:54:15;;;;;;;10.30;3.15;;;11.90;99.90;;;;;;6195094;23;19997;-81
2022/09/20 08:56:41;;;;;;;6.28;2.78;;;11.90;99.90;;;;;;6195957;23;20024;-81
2022/09/20 08:59:14;;;;;;;5.38;2.70;;;12.00;99.40;;;;;;6167793;23;20030;-81
2022/09/20 09:01:40;;;;;;;8.65;3.25;;;11.90;99.40;;;;;;6196208;23;20025;-81
2022/09/20 09:04:15;;;;;;;8.20;3.40;;;11.90;99.60;;;;;;6198893;23;20000;-81
2022/09/20 09:06:42;;;;;;;5.70;2.95;;;11.80;99.90;;;;;;6172720;23;20096;-81
2022/09/20 09:09:19;;;;;;;8.63;3.10;;;11.70;99.90;;;;;;6195986;23;20057;-82
2022/09/20 09:11:45;;;;;;;7.43;2.35;;;11.70;99.30;;;;;;6169359;23;20009;-82
2022/09/20 09:17:10;;;;;;;8.43;3.10;;;11.80;99.50;;;;;;6199116;23;20025;-81
2022/09/20 09:19:57;;;;;;;9.65;4.15;;;11.80;98.30;;;;;;6176365;23;20057;-81
2022/09/20 09:22:38;;;;;;;5.85;2.22;;;11.60;98.30;;;;;;6200342;23;20005;-81
2022/09/20 09:25:09;;;;;;;8.20;3.25;;;11.50;98.90;;;;;;6172715;23;20005;-81
2022/09/20 09:27:48;;;;;;;8.88;2.92;;;11.40;98.30;;;;;;6200650;23;20004;-81
2022/09/20 09:30:37;;;;;;;4.75;2.58;;;11.30;99.00;;;;;;6175414;23;20005;-81
2022/09/20 09:33:29;;;;;;;6.97;3.22;;;11.30;99.90;;;;;;6197577;23;20005;-81
2022/09/20 09:36:05;;;;;;;15.63;3.50;;;11.60;99.80;;;;;;6195733;23;20001;-81
2022/09/20 09:38:46;;;;;;;5.05;2.75;;;11.90;99.60;;;;;;6196368;23;20013;-82
2022/09/20 09:41:24;;;;;;;7.97;2.50;;;12.40;98.60;;;;;;6194468;23;20001;-82
2022/09/20 09:44:27;;;;;;;7.32;2.30;;;13.10;98.40;;;;;;6201723;23;20081;-81
2022/09/20 09:46:55;;;;;;;6.78;2.63;;;14.10;95.20;;;;;;6177373;23;20001;-80
2022/09/20 09:49:26;;;;;;;4.00;1.90;;;15.00;93.10;;;;;;6194860;23;20080;-81
2022/09/20 09:52:12;;;;;;;6.35;2.10;;;15.50;91.80;;;;;;6168899;23;20033;-81
2022/09/20 09:54:43;;;;;;;11.63;2.40;;;15.40;84.60;;;;;;6195567;23;20001;-80
2022/09/20 09:57:50;;;;;;;8.23;2.13;;;14.70;82.50;;;;;;6195560;23;19997;-80
2022/09/20 10:00:18;;;;;;;4.63;1.60;;;14.20;85.40;;;;;;6195718;23;19997;-81
2022/09/20 10:03:01;;;;;;;4.35;1.55;;;13.90;86.30;;;;;;6195057;23;20036;-80
2022/09/20 10:06:00;;;;;;;6.18;1.60;;;13.80;84.00;;;;;;6194645;23;20027;-81
2022/09/20 10:08:44;;;;;;;5.53;1.77;;;13.70;84.90;;;;;;6168850;23;20036;-80
2022/09/20 10:11:33;;;;;;;7.13;1.90;;;13.80;86.30;;;;;;6168440;23;20063;-82
2022/09/20 10:14:10;;;;;;;6.72;2.10;;;14.00;84.20;;;;;;6192901;23;20001;-80
2022/09/20 10:16:58;;;;;;;4.78;1.55;;;14.00;82.10;;;;;;6191852;23;19997;-78
2022/09/20 10:19:46;;;;;;;5.60;1.70;;;13.90;81.90;;;;;;6193068;23;20328;-82
2022/09/20 10:22:33;;;;;;;11.38;2.17;;;13.70;82.70;;;;;;6194825;23;20080;-81
2022/09/20 10:25:36;;;;;;;9.43;2.25;;;13.70;83.40;;;;;;6168298;23;20017;-79
2022/09/20 10:28:33;;;;;;;3.95;1.83;;;13.60;83.60;;;;;;6191914;23;20005;-79
2022/09/20 10:31:16;;;;;;;5.25;1.70;;;13.60;84.90;;;;;;6192902;23;20013;-79
2022/09/20 10:33:42;;;;;;;10.13;2.00;;;13.70;83.30;;;;;;6194274;23;20024;-81
2022/09/20 10:36:07;;;;;;;5.90;1.45;;;13.70;81.90;;;;;;6193781;23;20093;-80
2022/09/20 10:38:45;;;;;;;4.03;1.33;;;13.70;81.90;;;;;;6167535;23;20001;-80
2022/09/20 10:44:18;;;;;;;5.30;1.23;;;13.80;83.00;;;;;;6197580;23;20125;-79
2022/09/20 10:47:03;;;;;;;3.38;1.25;;;14.00;78.90;;;;;;6193232;23;20005;-80
2022/09/20 10:49:42;;;;;;;2.65;1.15;;;14.00;78.20;;;;;;6189344;23;20092;-80
2022/09/20 10:52:16;;;;;;;2.55;1.50;;;14.20;77.20;;;;;;6189496;23;20063;-79
2022/09/20 10:54:45;;;;;;;6.78;1.63;;;14.20;78.50;;;;;;6214749;23;20132;-81
2022/09/20 10:57:20;;;;;;;5.68;1.45;;;14.20;79.30;;;;;;6216474;23;20005;-79
2022/09/20 11:00:21;;;;;;;3.22;1.25;;;14.10;77.90;;;;;;6186618;23;20001;-79
2022/09/20 11:02:59;;;;;;;5.18;2.00;;;13.90;79.30;;;;;;6142672;23;20032;-80
2022/09/20 11:05:35;;;;;;;5.70;2.60;;;13.90;79.20;;;;;;6162447;23;20048;-79
2022/09/20 11:08:17;;;;;;;8.82;1.88;;;13.90;78.40;;;;;;6159505;23;20012;-80
2022/09/20 11:10:45;;;;;;;;;;;13.80;79.60;;;;;;6159603;23;20001;-80
2022/09/20 11:13:25;;;;;;;8.68;2.05;;;13.80;79.10;;;;;;6160499;23;19975;-79
2022/09/20 11:16:05;;;;;;;4.95;1.60;;;13.70;79.90;;;;;;6161187;23;20426;-80
2022/09/20 11:18:49;;;;;;;5.55;1.45;;;13.60;79.90;;;;;;6160282;23;20024;-80
2022/09/20 11:21:26;;;;;;;5.05;1.70;;;13.80;78.60;;;;;;6162055;23;20028;-80
2022/09/20 11:24:03;;;;;;;4.80;1.63;;;14.20;76.10;;;;;;6158881;23;20040;-80
2022/09/20 11:26:35;;;;;;;6.43;1.95;;;14.70;74.90;;;;;;6157747;23;20056;-81
2022/09/20 11:29:44;;;;;;;2.50;1.38;;;14.70;71.20;;;;;;6158232;23;20084;-80
2022/09/20 11:32:15;;;;;;;6.18;1.77;;;14.60;73.20;;;;;;6161532;23;20089;-81
2022/09/20 11:35:10;;;;;;;6.03;1.30;;;14.70;72.40;;;;;;6160096;23;20084;-83
2022/09/20 11:37:49;;;;;;;3.00;1.20;;;15.30;73.30;;;;;;6142430;23;20021;-81
2022/09/20 11:40:21;;;;;;;6.00;2.10;;;15.90;70.20;;;;;;6164285;23;20060;-80
2022/09/20 11:42:48;;;;;;;4.97;1.38;;;16.40;67.00;;;;;;6162869;23;20006;-80
2022/09/20 11:45:14;;;;;;;3.28;1.30;;;16.60;65.70;;;;;;6161445;23;20008;-81
2022/09/20 11:47:49;;;;;;;4.97;1.30;;;16.70;63.70;;;;;;6162285;23;20005;-81
2022/09/20 11:50:44;;;;;;;5.40;1.20;;;16.80;60.90;;;;;;6165698;23;20020;-80
2022/09/20 11:53:47;;;;;;;5.28;1.15;;;16.80;61.50;;;;;;6192749;23;20005;-82
2022/09/20 11:56:19;;;;;;;7.13;1.40;;;16.80;61.10;;;;;;6190561;23;20327;-84
2022/09/20 11:58:49;;;;;;;4.65;1.50;;;17.00;60.00;;;;;;6190527;23;20457;-80
2022/09/20 12:01:28;;;;;;;3.95;1.35;;;17.30;58.10;;;;;;6163234;23;20021;-79
2022/09/20 12:04:21;;;;;;;3.22;1.10;;;17.20;59.10;;;;;;6189362;23;20080;-79
2022/09/20 12:06:58;;;;;;;2.08;1.10;;;17.00;58.80;;;;;;6188734;23;20002;-79
2022/09/20 12:09:29;;;;;;;3.75;1.25;;;16.70;59.40;;;;;;6175327;23;20005;-86
2022/09/20 12:11:55;;;;;;;4.63;1.15;;;16.20;60.30;;;;;;6192288;23;20009;-80
2022/09/20 12:14:26;;;;;;;3.63;1.20;;;16.00;61.60;;;;;;6189653;23;20001;-79
2022/09/20 12:16:53;;;;;;;6.10;1.70;;;15.90;62.20;;;;;;6163135;23;20001;-82
2022/09/20 12:19:32;;;;;;;4.13;1.23;;;15.80;62.20;;;;;;6189183;23;20001;-80
2022/09/20 12:21:57;;;;;;;4.22;1.25;;;15.70;63.30;;;;;;6189320;23;20083;-79
2022/09/20 12:24:34;;;;;;;6.30;1.70;;;15.80;62.70;;;;;;6188248;23;20024;-79
2022/09/20 12:27:18;;;;;;;8.98;1.90;;;15.60;62.90;;;;;;6163992;23;20031;-79
2022/09/20 12:30:11;;;;;;;4.15;1.30;;;15.60;63.90;;;;;;6162638;23;20422;-80
2022/09/20 12:32:42;;;;;;;6.95;1.40;;;15.60;64.30;;;;;;6189424;23;20001;-80
2022/09/20 12:35:37;;;;;;;2.00;1.17;;;15.70;63.70;;;;;;6163404;23;19997;-79
2022/09/20 12:38:26;;;;;;;5.32;1.85;;;15.80;63.20;;;;;;6189897;23;19997;-79
2022/09/20 12:41:07;;;;;;;5.40;1.42;;;15.70;63.60;;;;;;6189528;23;20164;-79
2022/09/20 12:43:37;;;;;;;2.70;1.00;;;15.70;63.50;;;;;;6199636;23;20048;-82
2022/09/20 12:46:04;;;;;;;5.07;1.33;;;15.80;63.80;;;;;;6207263;23;19981;-86
2022/09/20 12:48:35;;;;;;;7.72;1.88;;;16.00;63.00;;;;;;6183918;23;20009;-84
2022/09/20 12:54:05;;;;;;;4.55;1.40;;;15.60;62.60;;;;;;6211817;23;20016;-86
2022/09/20 12:56:37;;;;;;;5.10;1.45;;;15.40;62.80;;;;;;6210516;23;20025;-86
2022/09/20 12:59:07;;;;;;;;;;;15.40;63.50;;;;;;6171090;23;20048;-80
2022/09/20 13:01:38;;;;;;;2.95;1.40;;;15.20;64.10;;;;;;6196019;23;19978;-80
2022/09/20 13:04:39;;;;;;;4.85;1.40;;;15.10;64.10;;;;;;6176452;23;20016;-79
2022/09/20 13:07:32;;;;;;;5.63;1.30;;;15.00;64.10;;;;;;6204613;23;20025;-80
2022/09/20 13:10:01;;;;;;;3.50;1.30;;;14.90;64.60;;;;;;6206667;23;20134;-86
2022/09/20 13:12:27;;;;;;;4.88;1.30;;;14.90;64.10;;;;;;6183270;23;20001;-88
2022/09/20 13:14:53;;;;;;;2.78;0.98;;;14.80;65.70;;;;;;6211078;23;19993;-88
2022/09/20 13:17:29;;;;;;;5.03;1.35;;;14.80;66.20;;;;;;6185217;23;20013;-81
2022/09/20 13:19:56;;;;;;;4.10;1.05;;;14.80;65.20;;;;;;6201560;23;20120;-80
2022/09/20 13:22:44;;;;;;;1.83;1.10;;;14.80;64.60;;;;;;6168521;23;20072;-80
2022/09/20 13:25:14;;;;;;;3.67;1.05;;;14.70;65.20;;;;;;6193244;23;20005;-80
2022/09/20 13:28:04;;;;;;;5.18;1.23;;;14.70;64.80;;;;;;6194249;23;19997;-83
2022/09/20 13:30:32;;;;;;;6.05;1.13;;;14.70;65.60;;;;;;6179068;23;20005;-81
2022/09/20 13:33:19;;;;;;;11.15;1.48;;;14.80;64.70;;;;;;6168959;23;20104;-80
2022/09/20 13:35:47;;;;;;;4.55;1.23;;;15.10;63.40;;;;;;6194685;23;20028;-80
2022/09/20 13:38:21;;;;;;;5.57;1.15;;;15.30;62.90;;;;;;6195588;23;19997;-81
2022/09/20 13:40:47;;;;;;;3.70;1.40;;;15.50;62.70;;;;;;6169997;23;20004;-81
2022/09/20 13:43:31;;;;;;;3.78;1.25;;;15.70;61.70;;;;;;6171478;23;20019;-80
2022/09/20 13:46:18;;;;;;;7.03;1.27;;;15.80;61.00;;;;;;6197066;23;20076;-83
2022/09/20 13:48:52;;;;;;;3.72;1.08;;;15.80;60.60;;;;;;6209540;23;20068;-86
2022/09/20 13:51:22;;;;;;;2.50;0.82;;;15.70;60.80;;;;;;6209213;23;20013;-84
2022/09/20 13:53:47;;;;;;;3.58;1.30;;;15.60;61.50;;;;;;6178952;23;20031;-81
2022/09/20 13:56:27;;;;;;;3.70;1.10;;;15.50;61.70;;;;;;6165318;23;20001;-81
2022/09/20 13:58:59;;;;;;;3.70;1.08;;;15.20;62.40;;;;;;6194304;23;20033;-81
2022/09/20 14:01:34;;;;;;;;;;;15.00;63.30;;;;;;6193703;23;20075;-81
2022/09/20 14:04:12;;;;;;;3.58;1.30;;;14.70;64.00;;;;;;6190796;23;19987;-80
2022/09/20 14:06:37;;;;;;;4.85;1.00;;;14.50;65.40;;;;;;6165055;23;20002;-81
2022/09/20 14:09:07;;;;;;;6.22;1.73;;;14.40;65.50;;;;;;6192368;23;20373;-80